createdAt,value
2015-11-21T14:54:40.916Z,96814
2015-11-21T14:54:57.682Z,96801
2015-11-21T14:55:13.809Z,96807
2015-11-21T14:55:29.075Z,96801
2015-11-21T14:55:47.856Z,96815
2015-11-21T14:56:00.622Z,96813
2015-11-21T14:56:13.171Z,96802
2015-11-21T14:56:25.375Z,96799
2015-11-21T14:56:37.421Z,96813
2015-11-21T14:56:49.531Z,96808
2015-11-21T14:57:01.656Z,96797
2015-11-21T14:57:14.298Z,96797
2015-11-21T14:57:27.283Z,96811
2015-11-21T14:57:39.439Z,96806
2015-11-21T14:57:52.392Z,96801
2015-11-21T14:58:04.955Z,96813
2015-11-21T14:58:18.146Z,96808
2015-11-21T14:58:31.631Z,96799
2015-11-21T14:58:44.240Z,96805
2015-11-21T14:58:56.412Z,96802
2015-11-21T16:12:06.155Z,96857
2015-11-21T16:12:18.517Z,96857
2015-11-21T16:12:31.314Z,96860
2015-11-21T16:12:43.986Z,96873
2015-11-21T16:12:57.095Z,96857
2015-11-21T16:13:11.345Z,96860
2015-11-21T16:13:23.816Z,96854
2015-11-21T16:13:36.222Z,96860
2015-11-21T16:13:49.910Z,96875
2015-11-21T16:14:02.660Z,96863
2015-11-21T16:14:15.366Z,96863
2015-11-21T16:14:30.803Z,96852
2015-11-21T16:14:43.460Z,96855
2015-11-21T16:14:56.881Z,96863
2015-11-21T16:15:09.913Z,96866
2015-11-21T16:15:22.931Z,96855
2015-11-21T16:53:54.362Z,96885
2015-11-21T16:54:06.941Z,96893
2015-11-21T16:54:21.050Z,96876
2015-11-21T16:54:33.347Z,96876
2015-11-21T16:54:45.975Z,96878
2015-11-21T16:54:58.022Z,96884
2015-11-21T16:55:10.037Z,96886
2015-11-21T16:55:22.069Z,96894
2015-11-21T16:55:34.084Z,96893
2015-11-21T16:55:46.197Z,96896
2015-11-21T16:55:58.165Z,96899
2015-11-21T16:56:11.353Z,96893
2015-11-21T16:56:24.072Z,96904
2015-11-21T16:56:38.181Z,96905
2015-11-21T16:56:50.558Z,96891
2015-11-21T16:57:03.839Z,96897
2015-11-21T16:57:16.589Z,96900
2015-11-21T16:57:29.683Z,96895
2015-11-21T16:57:42.605Z,96884
2015-11-21T16:57:55.202Z,96893
2015-11-21T16:58:11.920Z,96890
2015-11-21T16:58:25.014Z,96883
2015-11-21T16:58:37.967Z,96888
2015-11-21T16:58:51.658Z,96893
2015-11-21T16:59:04.533Z,96890
2015-11-21T16:59:17.189Z,96880
2015-11-21T16:59:30.361Z,96891
2015-11-21T16:59:43.767Z,96891
2015-11-21T16:59:56.504Z,96899
2015-11-21T17:00:10.036Z,96907
2015-11-21T17:00:22.958Z,96907
2015-11-21T17:00:36.614Z,96898
2015-11-21T17:00:49.226Z,96901
2015-11-21T17:01:02.070Z,96901
2015-11-21T17:01:14.304Z,96895
2015-11-21T17:01:26.601Z,96896
2015-11-21T17:01:41.804Z,96899
2015-11-21T17:01:54.181Z,96899
2015-11-21T17:02:06.556Z,96902
2015-11-21T17:02:19.681Z,96899
2015-11-21T17:02:32.134Z,96905
2015-11-21T17:02:45.041Z,96893
2015-11-21T17:02:57.325Z,96907
2015-11-21T17:03:09.981Z,96899
2015-11-21T17:03:29.669Z,96904
2015-11-21T17:03:46.497Z,96896
2015-11-21T17:04:00.094Z,96904
2015-11-21T17:04:16.969Z,96919
2015-11-21T17:04:30.125Z,96900
2015-11-21T17:04:43.390Z,96905
2015-11-21T17:04:55.767Z,96894
2015-11-21T17:05:08.814Z,96913
2015-11-21T17:05:21.533Z,96903
2015-11-21T17:05:33.705Z,96909
2015-11-21T17:05:46.674Z,96909
2015-11-21T17:05:59.458Z,96909
2015-11-21T17:06:12.067Z,96909
2015-11-21T17:06:24.536Z,96911
2015-11-21T17:06:37.974Z,96908
2015-11-21T17:06:51.788Z,96909
2015-11-21T17:07:04.569Z,96911
2015-11-21T17:07:17.304Z,96911
2015-11-21T17:07:35.007Z,96922
2015-11-21T17:07:51.138Z,96911
2015-11-21T17:08:07.560Z,96902
2015-11-21T17:08:21.263Z,96916
2015-11-21T17:08:38.638Z,96909
2015-11-21T17:08:56.597Z,96914
2015-11-21T17:09:09.207Z,96908
2015-11-21T17:09:22.878Z,96911
2015-11-21T17:09:35.519Z,96914
2015-11-21T17:09:47.785Z,96922
2015-11-21T17:10:00.743Z,96919
2015-11-21T17:10:13.962Z,96924
2015-11-21T17:10:26.493Z,96927
2015-11-21T17:10:41.822Z,96922
2015-11-21T17:10:54.562Z,96919
2015-11-21T17:11:07.890Z,96924
2015-11-21T17:11:20.796Z,96922
2015-11-21T17:11:33.749Z,96919
2015-11-21T17:11:46.452Z,96936
2015-11-21T17:11:59.068Z,96917
2015-11-21T17:12:12.021Z,96907
2015-11-21T17:12:24.990Z,96923
2015-11-21T17:12:37.803Z,96919
2015-11-21T17:12:50.488Z,96913
2015-11-21T17:13:03.222Z,96910
2015-11-21T17:13:15.941Z,96932
2015-11-21T17:13:28.488Z,96921
2015-11-21T17:13:41.254Z,96927
2015-11-21T17:13:53.611Z,96914
2015-11-21T17:14:05.924Z,96919
2015-11-21T17:14:21.767Z,96927
2015-11-21T17:14:35.502Z,96927
2015-11-21T17:14:48.252Z,96913
2015-11-21T17:15:00.937Z,96919
2015-11-21T17:15:13.593Z,96921
2015-11-21T17:15:25.828Z,96913
2015-11-21T17:15:39.718Z,96919
2015-11-21T17:15:52.388Z,96927
2015-11-21T17:16:06.029Z,96913
2015-11-21T17:16:18.248Z,96915
2015-11-21T17:16:31.623Z,96910
2015-11-21T17:16:49.997Z,96919
2015-11-21T17:17:07.965Z,96922
2015-11-21T17:17:20.340Z,96910
2015-11-21T17:17:32.684Z,96921
2015-11-21T17:17:45.653Z,96915
2015-11-21T17:17:57.888Z,96921
2015-11-21T17:18:10.560Z,96921
2015-11-21T17:18:23.279Z,96924
2015-11-21T17:18:38.904Z,96932
2015-11-21T17:18:51.092Z,96918
2015-11-21T17:19:04.155Z,96915
2015-11-21T17:19:16.249Z,96920
2015-11-21T17:19:29.389Z,96926
2015-11-21T17:19:41.764Z,96924
2015-11-21T17:19:54.453Z,96921
2015-11-21T17:20:07.265Z,96924
2015-11-21T17:20:20.172Z,96918
2015-11-21T17:20:33.343Z,96915
2015-11-21T17:20:46.984Z,96926
2015-11-21T17:20:59.579Z,96918
2015-11-21T18:08:01.511Z,96929
2015-11-21T18:08:14.043Z,96921
2015-11-21T18:08:34.405Z,96932
2015-11-21T18:08:52.811Z,96924
2015-11-21T18:09:04.905Z,96918
2015-11-21T18:09:17.014Z,96921
2015-11-21T18:09:29.186Z,96929
2015-11-21T18:09:42.267Z,96912
2015-11-21T18:09:54.674Z,96929
2015-11-21T18:10:06.830Z,96918
2015-11-21T18:10:18.939Z,96918
2015-11-21T18:10:31.611Z,96924
2015-11-21T18:10:44.691Z,96929
2015-11-21T18:10:57.269Z,96924
2015-11-21T18:11:09.801Z,96915
2015-11-21T18:11:22.504Z,96929
2015-11-21T18:11:35.195Z,96924
2015-11-21T18:11:47.414Z,96935
2015-11-21T18:12:03.070Z,96924
2015-11-21T18:12:15.367Z,96926
2015-11-21T18:12:27.711Z,96929
2015-11-21T18:12:40.150Z,96924
2015-11-21T18:12:52.635Z,96924
2015-11-21T18:13:05.400Z,96927
2015-11-21T18:13:18.025Z,96927
2015-11-21T18:13:30.228Z,96924
2015-11-21T18:13:43.497Z,96935
2015-11-21T18:13:56.169Z,96921
2015-11-21T18:14:08.856Z,96921
2015-11-21T18:14:21.653Z,96926
2015-11-21T18:14:33.950Z,96926
2015-11-21T18:14:46.234Z,96924
2015-11-21T18:14:58.625Z,96918
2015-11-21T18:15:11.500Z,96921
2015-11-21T18:15:24.047Z,96915
2015-11-21T18:15:39.393Z,96924
2015-11-21T18:15:52.018Z,96929
2015-11-21T18:16:05.018Z,96929
2015-11-21T18:16:17.346Z,96926
2015-11-21T18:16:29.736Z,96921
2015-11-21T18:16:42.005Z,96918
2015-11-21T18:16:54.802Z,96918
2015-11-21T18:17:07.052Z,96915
2015-11-21T18:17:20.380Z,96926
2015-11-21T18:17:32.943Z,96910
2015-11-21T18:17:45.633Z,96921
2015-11-21T18:17:57.602Z,96915
2015-11-21T18:18:10.086Z,96924
2015-11-21T18:18:22.149Z,96927
2015-11-21T18:18:39.370Z,96917
2015-11-21T18:18:51.542Z,96925
2015-11-21T18:19:04.683Z,96917
2015-11-21T18:19:17.324Z,96914
2015-11-21T18:19:30.120Z,96917
2015-11-21T18:19:43.201Z,96924
2015-11-21T18:19:56.826Z,96936
2015-11-21T18:20:09.029Z,96930
2015-11-21T18:20:21.107Z,96935
2015-11-21T18:20:33.279Z,96933
2015-11-21T18:20:45.969Z,96933
2015-11-21T18:20:58.750Z,96932
2015-11-21T18:21:13.907Z,96910
2015-11-21T18:21:26.079Z,96918
2015-11-21T18:21:38.266Z,96930
2015-11-21T18:21:50.863Z,96926
2015-11-21T18:22:03.472Z,96928
2015-11-21T18:22:15.707Z,96925
2015-11-21T18:22:28.425Z,96931
2015-11-21T18:22:41.506Z,96925
2015-11-21T18:22:54.506Z,96930
2015-11-21T18:23:06.553Z,96928
2015-11-21T18:23:18.772Z,96925
2015-11-21T18:23:31.210Z,96925
2015-11-21T18:23:43.337Z,96919
2015-11-21T18:23:55.493Z,96924
2015-11-21T18:24:07.665Z,96919
2015-11-21T18:24:20.274Z,96922
2015-11-21T18:24:32.446Z,96913
2015-11-21T18:24:44.605Z,96914
2015-11-21T18:24:56.761Z,96916
2015-11-21T18:25:09.074Z,96914
2015-11-21T18:25:21.183Z,96908
2015-11-21T18:25:33.793Z,96913
2015-11-21T18:25:45.873Z,96919
2015-11-21T18:25:58.482Z,96916
2015-11-21T18:26:10.826Z,96911
2015-11-21T18:26:22.982Z,96913
2015-11-21T18:26:35.060Z,96919
2015-11-21T18:26:48.641Z,96913
2015-11-21T18:27:01.313Z,96916
2015-11-21T18:27:13.985Z,96914
2015-11-21T18:27:30.251Z,96902
2015-11-21T18:27:42.925Z,96916
2015-11-21T18:27:55.659Z,96900
2015-11-21T18:28:08.456Z,96900
2015-11-21T18:28:20.581Z,96892
2015-11-21T18:28:32.800Z,96903
2015-11-21T18:28:45.554Z,96905
2015-11-21T18:28:57.835Z,96911
2015-11-21T18:29:10.554Z,96897
2015-11-21T18:29:22.788Z,96900
2015-11-21T18:29:35.538Z,96897
2015-11-21T18:29:47.853Z,96905
2015-11-21T18:30:00.118Z,96903
2015-11-21T18:30:12.446Z,96899
2015-11-21T18:30:24.524Z,96899
2015-11-21T18:30:37.790Z,96899
2015-11-21T18:30:50.199Z,96902
2015-11-21T18:31:09.559Z,96907
2015-11-21T18:31:22.231Z,96899
2015-11-21T18:31:34.981Z,96907
2015-11-21T18:31:47.279Z,96899
2015-11-21T18:31:59.529Z,96899
2015-11-21T18:32:11.904Z,96884
2015-11-21T18:32:24.170Z,96889
2015-11-21T18:32:37.139Z,96906
2015-11-21T18:32:50.032Z,96915
2015-11-21T18:33:02.439Z,96890
2015-11-21T18:33:14.767Z,96906
2015-11-21T18:33:27.017Z,96909
2015-11-21T18:33:39.220Z,96906
2015-11-21T18:33:51.395Z,96901
2015-11-21T18:34:04.051Z,96895
2015-11-21T18:34:17.848Z,96904
2015-11-21T18:34:30.301Z,96901
2015-11-21T18:34:43.194Z,96892
2015-11-21T18:34:55.834Z,96889
2015-11-21T18:35:12.209Z,96905
2015-11-21T18:35:24.537Z,96894
2015-11-21T18:35:41.303Z,96910
2015-11-21T18:35:54.120Z,96896
2015-11-21T18:36:06.338Z,96891
2015-11-21T18:36:18.495Z,96902
2015-11-21T18:36:30.995Z,96902
2015-11-21T18:36:43.825Z,96902
2015-11-21T18:36:55.981Z,96885
2015-11-21T18:37:08.715Z,96897
2015-11-21T18:37:20.934Z,96891
2015-11-21T18:37:33.059Z,96894
2015-11-21T18:37:45.062Z,96889
2015-11-21T18:37:57.406Z,96894
2015-11-21T18:38:10.156Z,96894
2015-11-21T18:38:26.453Z,96894
2015-11-21T18:38:38.843Z,96888
2015-11-21T18:38:51.018Z,96894
2015-11-21T18:39:03.128Z,96894
2015-11-21T18:39:22.909Z,96893
2015-11-21T18:39:35.503Z,96893
2015-11-21T18:39:54.505Z,96888
2015-11-21T18:40:07.020Z,96899
2015-11-21T18:40:19.067Z,96890
2015-11-21T18:40:31.473Z,96892
2015-11-21T18:40:44.133Z,96898
2015-11-21T18:40:56.179Z,96892
2015-11-21T18:41:09.070Z,96900
2015-11-21T18:41:21.133Z,96903
2015-11-21T18:41:33.320Z,96906
2015-11-21T18:41:45.994Z,96903
2015-11-21T18:41:58.541Z,96903
2015-11-21T18:42:10.916Z,96892
2015-11-21T18:42:26.416Z,96913
2015-11-21T18:42:39.838Z,96896
2015-11-21T18:42:51.966Z,96904
2015-11-21T18:43:04.122Z,96905
2015-11-21T18:43:16.513Z,96902
2015-11-21T18:43:29.684Z,96899
2015-11-21T18:43:42.075Z,96907
2015-11-21T18:43:54.109Z,96904
2015-11-21T18:44:06.734Z,96904
2015-11-21T18:44:19.187Z,96902
2015-11-21T18:44:32.266Z,96897
2015-11-21T18:44:44.425Z,96905
2015-11-21T18:44:56.519Z,96888
2015-11-21T18:45:08.628Z,96892
2015-11-21T18:45:20.784Z,96876
2015-11-21T18:45:33.300Z,96895
2015-11-21T18:45:45.397Z,96885
2015-11-21T18:45:57.475Z,96890
2015-11-21T18:46:09.662Z,96882
2015-11-21T18:46:21.693Z,96895
2015-11-21T18:46:33.787Z,96901
2015-11-21T18:46:48.570Z,96887
2015-11-21T18:47:01.586Z,96895
2015-11-21T18:47:14.461Z,96898
2015-11-21T18:47:30.055Z,96885
2015-11-21T18:47:43.055Z,96893
2015-11-21T18:47:55.854Z,96896
2015-11-21T18:48:09.526Z,96896
2015-11-21T18:48:22.447Z,96893
2015-11-21T18:48:35.479Z,96891
2015-11-21T18:48:48.545Z,96892
2015-11-21T18:49:01.717Z,96892
2015-11-21T18:49:17.233Z,96892
2015-11-21T18:49:30.123Z,96895
2015-11-21T18:49:43.389Z,96898
2015-11-21T18:49:56.047Z,96895
2015-11-21T18:50:09.250Z,96881
2015-11-21T18:50:22.563Z,96893
2015-11-21T18:50:35.610Z,96894
2015-11-21T18:50:48.706Z,96891
2015-11-21T18:51:01.769Z,96889
2015-11-21T18:51:14.128Z,96894
2015-11-21T18:51:27.941Z,96891
2015-11-21T18:51:41.456Z,96883
2015-11-21T18:51:55.647Z,96883
2015-11-21T18:52:08.225Z,96886
2015-11-21T18:52:21.381Z,96883
2015-11-21T18:52:36.147Z,96888
2015-11-21T18:52:49.321Z,96880
2015-11-21T18:53:02.290Z,96886
2015-11-21T18:53:16.352Z,96880
2015-11-21T18:53:29.711Z,96878
2015-11-21T18:53:42.555Z,96891
2015-11-21T18:54:02.293Z,96880
2015-11-21T18:54:14.636Z,96886
2015-11-21T18:54:27.339Z,96891
2015-11-21T18:54:39.761Z,96894
2015-11-21T18:54:52.608Z,96896
2015-11-21T18:55:06.061Z,96894
2015-11-21T18:55:19.233Z,96893
2015-11-21T18:55:32.108Z,96888
2015-11-21T18:55:47.752Z,96898
2015-11-21T18:56:00.939Z,96899
2015-11-21T18:56:14.627Z,96885
2015-11-21T18:56:27.924Z,96893
2015-11-21T18:56:41.017Z,96893
2015-11-21T18:56:54.597Z,96893
2015-11-21T18:57:07.332Z,96901
2015-11-21T18:57:20.410Z,96898
2015-11-21T18:57:33.457Z,96898
2015-11-21T18:57:48.913Z,96893
2015-11-21T18:58:01.819Z,96893
2015-11-21T18:58:14.991Z,96898
2015-11-21T18:58:27.163Z,96895
2015-11-21T18:58:44.116Z,96887
2015-11-21T18:58:56.432Z,96898
2015-11-21T18:59:09.978Z,96884
2015-11-21T18:59:22.947Z,96904
2015-11-21T18:59:36.088Z,96894
2015-11-21T18:59:48.106Z,96888
2015-11-21T19:00:01.106Z,96896
2015-11-21T19:00:13.638Z,96904
2015-11-21T19:00:26.325Z,96893
2015-11-21T19:00:39.341Z,96894
2015-11-21T19:00:52.827Z,96886
2015-11-21T19:01:06.187Z,96892
2015-11-21T19:01:22.483Z,96873
2015-11-21T19:01:40.968Z,96892
2015-11-21T19:01:53.127Z,96889
2015-11-21T19:02:12.799Z,96889
2015-11-21T19:02:29.080Z,96886
2015-11-21T19:02:41.127Z,96886
2015-11-21T19:02:53.193Z,96883
2015-11-21T19:03:05.693Z,96880
2015-11-21T19:03:17.771Z,96891
2015-11-21T19:03:30.380Z,96893
2015-11-21T19:03:42.505Z,96896
2015-11-21T19:03:55.226Z,96896
2015-11-21T19:04:07.835Z,96891
2015-11-21T19:04:24.679Z,96885
2015-11-21T19:04:38.429Z,96891
2015-11-21T19:04:50.541Z,96889
2015-11-21T19:05:02.698Z,96889
2015-11-21T19:05:15.057Z,96889
2015-11-21T19:05:27.604Z,96897
2015-11-21T19:05:39.729Z,96894
2015-11-21T19:05:53.262Z,96899
2015-11-21T19:06:05.950Z,96902
2015-11-21T19:06:18.606Z,96893
2015-11-21T19:06:30.731Z,96899
2015-11-21T19:06:43.340Z,96905
2015-11-21T19:06:55.546Z,96896
2015-11-21T19:07:07.828Z,96894
2015-11-21T19:07:20.812Z,96893
2015-11-21T19:07:35.968Z,96888
2015-11-21T19:07:48.531Z,96891
2015-11-21T19:08:01.236Z,96891
2015-11-21T19:08:13.251Z,96888
2015-11-21T19:08:25.330Z,96894
2015-11-21T19:08:37.392Z,96891
2015-11-21T19:08:49.501Z,96894
2015-11-21T19:09:02.490Z,96894
2015-11-21T19:09:15.615Z,96894
2015-11-21T19:09:27.709Z,96897
2015-11-21T19:09:40.209Z,96894
2015-11-21T19:09:53.226Z,96908
2015-11-21T19:10:06.195Z,96894
2015-11-21T19:10:22.117Z,96905
2015-11-21T19:10:34.773Z,96888
2015-11-21T19:10:48.429Z,96896
2015-11-21T19:11:01.120Z,96899
2015-11-21T19:11:14.151Z,96889
2015-11-21T19:11:26.807Z,96898
2015-11-21T19:11:39.635Z,96909
2015-11-21T19:11:52.026Z,96898
2015-11-21T19:12:05.419Z,96903
2015-11-21T19:12:17.841Z,96911
2015-11-21T19:12:30.091Z,96906
2015-11-21T19:12:48.528Z,96895
2015-11-21T19:13:01.032Z,96889
2015-11-21T19:13:15.220Z,96892
2015-11-21T19:13:28.126Z,96905
2015-11-21T19:13:40.751Z,96894
2015-11-21T19:13:53.391Z,96903
2015-11-21T19:14:06.018Z,96886
2015-11-21T19:14:18.175Z,96895
2015-11-21T19:14:30.722Z,96914
2015-11-21T19:14:43.518Z,96906
2015-11-21T19:14:56.506Z,96895
2015-11-21T19:15:09.225Z,96881
2015-11-21T20:14:50.839Z,96890
2015-11-21T20:15:03.839Z,96893
2015-11-21T20:15:15.964Z,96888
2015-11-21T20:15:27.995Z,96894
2015-11-21T20:15:40.498Z,96904
2015-11-21T20:15:53.170Z,96906
2015-11-21T20:16:05.982Z,96905
2015-11-21T20:16:18.654Z,96894
2015-11-21T20:16:31.826Z,96908
2015-11-21T20:16:43.906Z,96906
2015-11-21T20:16:56.859Z,96903
2015-11-21T20:17:09.859Z,96912
2015-11-21T20:17:22.125Z,96896
2015-11-21T20:17:34.750Z,96901
2015-11-21T20:17:47.597Z,96907
2015-11-21T20:18:00.128Z,96904
2015-11-21T20:18:12.925Z,96904
2015-11-21T20:18:25.690Z,96901
2015-11-21T20:18:37.972Z,96910
2015-11-21T20:18:51.162Z,96905
2015-11-21T20:19:03.803Z,96905
2015-11-21T20:19:16.537Z,96908
2015-11-21T20:19:28.850Z,96900
2015-11-21T20:19:41.162Z,96897
2015-11-21T20:19:53.962Z,96898
2015-11-21T20:20:06.228Z,96904
2015-11-21T20:20:18.556Z,96905
2015-11-21T20:20:31.400Z,96889
2015-11-21T20:20:43.621Z,96905
2015-11-21T20:20:57.153Z,96905
2015-11-21T20:21:09.293Z,96911
2015-11-21T20:21:25.887Z,96900
2015-11-21T20:21:38.231Z,96906
2015-11-21T20:21:51.140Z,96900
2015-11-21T20:22:04.124Z,96911
2015-11-21T20:22:18.234Z,96911
2015-11-21T20:22:30.859Z,96917
2015-11-21T20:22:43.501Z,96893
2015-11-21T20:22:56.001Z,96915
2015-11-21T20:23:09.220Z,96912
2015-11-21T20:23:21.658Z,96903
2015-11-21T20:23:38.439Z,96917
2015-11-21T20:23:51.332Z,96911
2015-11-21T20:24:04.223Z,96915
2015-11-21T20:24:16.692Z,96906
2015-11-21T20:24:29.176Z,96908
2015-11-21T20:24:42.098Z,96908
2015-11-21T20:24:55.178Z,96905
2015-11-21T20:25:08.069Z,96900
2015-11-21T20:25:20.444Z,96905
2015-11-21T20:25:33.709Z,96902
2015-11-21T20:25:52.994Z,96902
2015-11-21T20:26:05.587Z,96905
2015-11-21T20:26:25.306Z,96905
2015-11-21T20:26:38.681Z,96913
2015-11-21T20:26:51.169Z,96916
2015-11-21T20:27:04.153Z,96911
2015-11-21T20:27:17.090Z,96900
2015-11-21T20:27:29.950Z,96908
2015-11-21T20:27:42.294Z,96892
2015-11-21T20:27:55.906Z,96909
2015-11-21T20:28:08.984Z,96898
2015-11-21T20:28:21.343Z,96896
2015-11-21T20:28:33.828Z,96907
2015-11-21T20:28:46.800Z,96910
2015-11-21T20:28:59.768Z,96893
2015-11-21T20:29:12.846Z,96896
2015-11-21T20:29:25.987Z,96910
2015-11-21T20:29:42.737Z,96902
2015-11-21T20:29:56.020Z,96913
2015-11-21T20:30:09.067Z,96905
2015-11-21T20:30:21.520Z,96894
2015-11-21T20:30:34.458Z,96896
2015-11-21T20:30:47.742Z,96897
2015-11-21T20:31:00.883Z,96897
2015-11-21T20:31:13.148Z,96897
2015-11-21T20:31:25.273Z,96886
2015-11-21T20:31:38.476Z,96889
2015-11-21T20:31:51.464Z,96900
2015-11-21T20:32:12.245Z,96891
2015-11-21T20:32:26.761Z,96895
2015-11-21T20:32:40.042Z,96895
2015-11-21T20:32:53.513Z,96908
2015-11-21T20:33:07.669Z,96889
2015-11-21T20:33:19.716Z,96903
2015-11-21T20:33:31.763Z,96908
2015-11-21T20:33:43.825Z,96889
2015-11-21T20:33:56.359Z,96903
2015-11-21T20:34:08.719Z,96895
2015-11-21T20:34:21.328Z,96903
2015-11-21T20:34:33.578Z,96892
2015-11-21T20:34:45.578Z,96900
2015-11-21T20:34:57.908Z,96903
2015-11-21T20:35:10.424Z,96903
2015-11-21T20:35:22.440Z,96886
2015-11-21T20:35:34.830Z,96897
2015-11-21T20:35:47.315Z,96892
2015-11-21T20:35:59.458Z,96895
2015-11-21T20:36:14.568Z,96892
2015-11-21T20:36:26.693Z,96887
2015-11-21T20:36:38.786Z,96892
2015-11-21T20:36:50.836Z,96895
2015-11-21T20:37:03.883Z,96895
2015-11-21T20:37:15.789Z,96892
2015-11-21T20:37:27.899Z,96893
2015-11-21T20:37:39.883Z,96884
2015-11-21T20:37:52.448Z,96898
2015-11-21T20:38:04.979Z,96890
2015-11-21T20:38:17.479Z,96888
2015-11-21T20:38:30.088Z,96896
2015-11-21T20:38:42.182Z,96890
2015-11-21T20:38:54.795Z,96899
2015-11-21T20:39:06.920Z,96896
2015-11-21T20:39:19.295Z,96893
2015-11-21T20:39:31.311Z,96901
2015-11-21T20:39:43.748Z,96909
2015-11-21T20:39:57.016Z,96895
2015-11-21T20:40:09.469Z,96914
2015-11-21T20:40:21.516Z,96889
2015-11-21T20:40:33.532Z,96892
2015-11-21T20:40:47.141Z,96890
2015-11-21T20:40:59.128Z,96899
2015-11-21T20:41:11.207Z,96896
2015-11-21T20:41:23.597Z,96895
2015-11-21T20:41:36.003Z,96885
2015-11-21T20:41:48.082Z,96904
2015-11-21T20:42:00.475Z,96904
2015-11-21T20:42:12.975Z,96898
2015-11-21T20:42:25.725Z,96901
2015-11-21T20:42:37.975Z,96895
2015-11-21T20:42:50.491Z,96909
2015-11-21T20:43:03.040Z,96912
2015-11-21T20:43:15.087Z,96906
2015-11-21T20:43:27.618Z,96912
2015-11-21T20:43:41.024Z,96898
2015-11-21T20:43:53.136Z,96900
2015-11-21T20:44:05.261Z,96917
2015-11-21T20:44:17.355Z,96894
2015-11-21T20:44:29.465Z,96889
2015-11-21T20:44:41.965Z,96908
2015-11-21T20:44:54.185Z,96908
2015-11-21T20:45:06.342Z,96897
2015-11-21T20:45:18.404Z,96886
2015-11-21T20:45:31.592Z,96903
2015-11-21T20:45:43.701Z,96900
2015-11-21T20:45:58.735Z,96911
2015-11-21T20:46:10.813Z,96911
2015-11-21T20:46:23.673Z,96903
2015-11-21T20:46:35.954Z,96900
2015-11-21T20:46:49.157Z,96897
2015-11-21T20:47:01.598Z,96902
2015-11-21T20:47:14.629Z,96910
2015-11-21T20:47:26.660Z,96894
2015-11-21T20:47:41.754Z,96888
2015-11-21T20:47:54.366Z,96891
2015-11-21T20:48:06.991Z,96907
2015-11-21T20:48:19.804Z,96905
2015-11-21T20:48:32.288Z,96896
2015-11-21T20:48:44.788Z,96893
2015-11-21T20:48:56.885Z,96893
2015-11-21T20:49:09.369Z,96876
2015-11-21T20:49:21.479Z,96874
2015-11-21T20:49:33.604Z,96890
2015-11-21T20:49:45.619Z,96898
2015-11-21T20:49:58.762Z,96896
2015-11-21T20:50:10.731Z,96893
2015-11-21T20:50:23.277Z,96880
2015-11-21T20:50:35.371Z,96893
2015-11-21T20:50:47.449Z,96899
2015-11-21T20:50:59.530Z,96888
2015-11-21T20:51:11.890Z,96901
2015-11-21T20:51:23.905Z,96888
2015-11-21T20:51:36.155Z,96890
2015-11-21T20:51:48.343Z,96904
2015-11-21T20:52:00.455Z,96890
2015-11-21T20:52:12.518Z,96885
2015-11-21T20:52:25.862Z,96877
2015-11-21T20:52:40.987Z,96885
2015-11-21T20:52:53.127Z,96894
2015-11-21T20:53:05.270Z,96896
2015-11-21T20:53:17.754Z,96897
2015-11-21T20:53:29.848Z,96900
2015-11-21T20:53:41.879Z,96900
2015-11-21T20:53:54.960Z,96875
2015-11-21T20:54:07.195Z,96889
2015-11-21T20:54:19.367Z,96902
2015-11-21T20:54:32.398Z,96905
2015-11-21T20:54:44.820Z,96902
2015-11-21T20:54:56.775Z,96897
2015-11-21T20:55:08.790Z,96886
2015-11-21T20:55:20.837Z,96905
2015-11-21T20:55:33.072Z,96900
2015-11-21T20:55:45.077Z,96900
2015-11-21T20:55:57.126Z,96898
2015-11-21T20:56:09.142Z,96889
2015-11-21T20:56:21.126Z,96911
2015-11-21T20:56:33.658Z,96892
2015-11-21T20:56:45.689Z,96895
2015-11-21T20:56:57.786Z,96903
2015-11-21T20:57:09.958Z,96901
2015-11-21T20:57:22.504Z,96887
2015-11-21T20:57:35.051Z,96884
2015-11-21T20:57:47.004Z,96886
2015-11-21T20:57:58.992Z,96900
2015-11-21T20:58:14.054Z,96897
2015-11-21T20:58:26.148Z,96899
2015-11-21T20:58:38.711Z,96907
2015-11-21T20:58:50.679Z,96870
2015-11-21T20:59:03.010Z,96894
2015-11-21T20:59:15.042Z,96895
2015-11-21T20:59:27.026Z,96892
2015-11-21T20:59:39.198Z,96897
2015-11-21T20:59:51.495Z,96897
2015-11-21T21:00:03.950Z,96902
2015-11-21T21:00:16.919Z,96907
2015-11-21T21:00:29.466Z,96893
2015-11-21T21:00:41.731Z,96910
2015-11-21T21:00:54.169Z,96885
2015-11-21T21:01:08.047Z,96893
2015-11-21T21:01:19.953Z,96898
2015-11-21T21:01:33.031Z,96885
2015-11-21T21:01:45.515Z,96887
2015-11-21T21:01:58.017Z,96887
2015-11-21T21:02:10.955Z,96887
2015-11-21T21:02:23.486Z,96895
2015-11-21T21:02:35.689Z,96879
2015-11-21T21:02:47.689Z,96890
2015-11-21T21:02:59.896Z,96884
2015-11-21T21:03:12.037Z,96890
2015-11-21T21:03:24.053Z,96901
2015-11-21T21:03:36.131Z,96895
2015-11-21T21:03:48.256Z,96890
